CheckWX is a tool to help pilots better visualize weather data.  It is not intended as a substitute for an official pre-flight weather briefing.

19:16:48 UTC

KHEQ METAR
Holyoke Airport
Holyoke, Colorado, USA
Current

27 mins ago

KHEQ 221850Z AUTO 12006KT M1/4SM FZFG OVC001 00/M01 A2990 RMK AO2
Observed
Feb-22 @ 18:50 UTC
Wind
  • 120° at 6 KTS
Visibility
1/4 SM
Flight Rules
LIFR
Conditions
Freezing Fog
Cloud Levels
  • Overcast at 100' AGL
Temperature
C / 32°F
Dewpoint
-1°C / 30°F
Humidity
93%
Altimeter
29.9" Hg
Pressure
1012.52 hPa
Previous

47 mins ago

KHEQ 221830Z AUTO 11007KT M1/4SM FZFG OVC001 M01/M02 A2991 RMK AO2
Observed
Feb-22 @ 18:30 UTC
Wind
  • 110° at 7 KTS
Visibility
1/4 SM
Flight Rules
LIFR
Conditions
Freezing Fog
Cloud Levels
  • Overcast at 100' AGL
Temperature
-1°C / 30°F
Dewpoint
-2°C / 28°F
Humidity
93%
Altimeter
29.91" Hg
Pressure
1012.92 hPa
Previous

1 hour ago

KHEQ 221810Z AUTO 11006KT M1/4SM FZFG OVC001 M01/M02 A2991 RMK AO2
Observed
Feb-22 @ 18:10 UTC
Wind
  • 110° at 6 KTS
Visibility
1/4 SM
Flight Rules
LIFR
Conditions
Freezing Fog
Cloud Levels
  • Overcast at 100' AGL
Temperature
-1°C / 30°F
Dewpoint
-2°C / 28°F
Humidity
93%
Altimeter
29.91" Hg
Pressure
1012.92 hPa